sensor_id;sensor_type;location;lat;lon;timestamp;P1;durP1;ratioP1;P2;durP2;ratioP2
67749;SDS011;54550;48.838;8.828;2022-09-17T00:01:57;6.63;;;1.37;;
67749;SDS011;54550;48.838;8.828;2022-09-17T00:04:23;6.90;;;1.40;;
67749;SDS011;54550;48.838;8.828;2022-09-17T00:06:49;4.20;;;1.25;;
67749;SDS011;54550;48.838;8.828;2022-09-17T00:09:15;5.93;;;1.70;;
67749;SDS011;54550;48.838;8.828;2022-09-17T00:11:42;1.25;;;1.15;;
67749;SDS011;54550;48.838;8.828;2022-09-17T00:14:11;1.77;;;1.48;;
67749;SDS011;54550;48.838;8.828;2022-09-17T00:16:39;1.90;;;1.45;;
67749;SDS011;54550;48.838;8.828;2022-09-17T00:19:06;8.70;;;1.73;;
67749;SDS011;54550;48.838;8.828;2022-09-17T00:21:34;1.40;;;1.30;;
67749;SDS011;54550;48.838;8.828;2022-09-17T00:24:01;1.57;;;1.30;;
67749;SDS011;54550;48.838;8.828;2022-09-17T00:26:27;9.50;;;1.73;;
67749;SDS011;54550;48.838;8.828;2022-09-17T00:28:54;8.88;;;1.80;;
67749;SDS011;54550;48.838;8.828;2022-09-17T00:31:21;1.45;;;1.15;;
67749;SDS011;54550;48.838;8.828;2022-09-17T00:33:47;5.03;;;2.88;;
67749;SDS011;54550;48.838;8.828;2022-09-17T00:36:13;2.85;;;1.50;;
67749;SDS011;54550;48.838;8.828;2022-09-17T00:38:39;2.45;;;1.48;;
67749;SDS011;54550;48.838;8.828;2022-09-17T00:41:06;9.30;;;1.83;;
67749;SDS011;54550;48.838;8.828;2022-09-17T00:43:45;2.15;;;1.52;;
67749;SDS011;54550;48.838;8.828;2022-09-17T00:46:25;3.55;;;1.42;;
67749;SDS011;54550;48.838;8.828;2022-09-17T00:48:52;1.92;;;1.60;;
67749;SDS011;54550;48.838;8.828;2022-09-17T00:51:21;2.80;;;1.33;;
67749;SDS011;54550;48.838;8.828;2022-09-17T00:53:50;3.17;;;1.13;;
67749;SDS011;54550;48.838;8.828;2022-09-17T00:56:19;5.43;;;1.80;;
67749;SDS011;54550;48.838;8.828;2022-09-17T00:58:47;2.45;;;1.10;;
67749;SDS011;54550;48.838;8.828;2022-09-17T01:01:13;2.35;;;1.75;;
67749;SDS011;54550;48.838;8.828;2022-09-17T01:03:39;4.95;;;2.30;;
67749;SDS011;54550;48.838;8.828;2022-09-17T01:11:08;6.70;;;2.03;;
67749;SDS011;54550;48.838;8.828;2022-09-17T01:21:46;4.63;;;1.50;;
67749;SDS011;54550;48.838;8.828;2022-09-17T01:24:26;2.92;;;1.30;;
67749;SDS011;54550;48.838;8.828;2022-09-17T01:32:28;3.50;;;1.40;;
67749;SDS011;54550;48.838;8.828;2022-09-17T01:37:32;3.63;;;0.98;;
67749;SDS011;54550;48.838;8.828;2022-09-17T01:40:23;10.05;;;2.17;;
67749;SDS011;54550;48.838;8.828;2022-09-17T01:45:16;9.35;;;3.03;;
67749;SDS011;54550;48.838;8.828;2022-09-17T01:47:48;2.05;;;1.65;;
67749;SDS011;54550;48.838;8.828;2022-09-17T01:50:17;4.90;;;2.30;;
67749;SDS011;54550;48.838;8.828;2022-09-17T01:52:45;3.50;;;1.30;;
67749;SDS011;54550;48.838;8.828;2022-09-17T01:55:13;4.13;;;1.70;;
67749;SDS011;54550;48.838;8.828;2022-09-17T02:00:17;1.70;;;1.10;;
67749;SDS011;54550;48.838;8.828;2022-09-17T02:02:53;9.98;;;1.80;;
67749;SDS011;54550;48.838;8.828;2022-09-17T02:07:58;2.10;;;1.48;;
67749;SDS011;54550;48.838;8.828;2022-09-17T02:10:29;3.40;;;1.42;;
67749;SDS011;54550;48.838;8.828;2022-09-17T02:12:57;5.03;;;1.45;;
67749;SDS011;54550;48.838;8.828;2022-09-17T02:15:26;3.40;;;1.50;;
67749;SDS011;54550;48.838;8.828;2022-09-17T02:17:57;3.70;;;1.73;;
67749;SDS011;54550;48.838;8.828;2022-09-17T02:20:29;7.32;;;1.83;;
67749;SDS011;54550;48.838;8.828;2022-09-17T02:22:58;21.02;;;1.45;;
67749;SDS011;54550;48.838;8.828;2022-09-17T02:25:37;2.40;;;1.33;;
67749;SDS011;54550;48.838;8.828;2022-09-17T02:30:31;6.17;;;1.80;;
67749;SDS011;54550;48.838;8.828;2022-09-17T02:32:57;7.55;;;1.73;;
67749;SDS011;54550;48.838;8.828;2022-09-17T02:35:24;4.63;;;1.63;;
67749;SDS011;54550;48.838;8.828;2022-09-17T02:37:50;1.85;;;1.30;;
67749;SDS011;54550;48.838;8.828;2022-09-17T02:40:17;8.27;;;1.60;;
67749;SDS011;54550;48.838;8.828;2022-09-17T02:42:55;14.40;;;2.30;;
67749;SDS011;54550;48.838;8.828;2022-09-17T02:48:10;10.35;;;2.17;;
67749;SDS011;54550;48.838;8.828;2022-09-17T02:51:02;6.72;;;1.80;;
67749;SDS011;54550;48.838;8.828;2022-09-17T03:01:24;7.68;;;2.70;;
67749;SDS011;54550;48.838;8.828;2022-09-17T03:03:53;7.60;;;1.40;;
67749;SDS011;54550;48.838;8.828;2022-09-17T03:06:19;11.30;;;2.00;;
67749;SDS011;54550;48.838;8.828;2022-09-17T03:08:45;4.03;;;1.10;;
67749;SDS011;54550;48.838;8.828;2022-09-17T03:11:11;4.63;;;2.20;;
67749;SDS011;54550;48.838;8.828;2022-09-17T03:13:37;7.20;;;2.60;;
67749;SDS011;54550;48.838;8.828;2022-09-17T03:16:04;9.02;;;1.25;;
67749;SDS011;54550;48.838;8.828;2022-09-17T03:18:30;8.63;;;2.10;;
67749;SDS011;54550;48.838;8.828;2022-09-17T03:20:57;4.97;;;1.58;;
67749;SDS011;54550;48.838;8.828;2022-09-17T03:23:23;3.35;;;1.90;;
67749;SDS011;54550;48.838;8.828;2022-09-17T03:28:18;5.88;;;1.25;;
67749;SDS011;54550;48.838;8.828;2022-09-17T03:30:44;13.23;;;1.60;;
67749;SDS011;54550;48.838;8.828;2022-09-17T03:33:10;2.72;;;1.08;;
67749;SDS011;54550;48.838;8.828;2022-09-17T03:35:36;10.35;;;1.75;;
67749;SDS011;54550;48.838;8.828;2022-09-17T03:38:03;5.95;;;1.48;;
67749;SDS011;54550;48.838;8.828;2022-09-17T03:40:29;15.27;;;1.92;;
67749;SDS011;54550;48.838;8.828;2022-09-17T03:42:55;26.30;;;3.80;;
67749;SDS011;54550;48.838;8.828;2022-09-17T03:47:58;8.27;;;2.33;;
67749;SDS011;54550;48.838;8.828;2022-09-17T03:50:24;4.78;;;1.55;;
67749;SDS011;54550;48.838;8.828;2022-09-17T03:55:26;3.35;;;1.55;;
67749;SDS011;54550;48.838;8.828;2022-09-17T04:00:28;17.58;;;3.05;;
67749;SDS011;54550;48.838;8.828;2022-09-17T04:05:46;7.82;;;1.75;;
67749;SDS011;54550;48.838;8.828;2022-09-17T04:13:25;4.07;;;1.50;;
67749;SDS011;54550;48.838;8.828;2022-09-17T04:15:51;6.63;;;1.97;;
67749;SDS011;54550;48.838;8.828;2022-09-17T04:18:17;10.17;;;3.03;;
67749;SDS011;54550;48.838;8.828;2022-09-17T04:20:43;9.25;;;2.15;;
67749;SDS011;54550;48.838;8.828;2022-09-17T04:23:11;8.63;;;2.20;;
67749;SDS011;54550;48.838;8.828;2022-09-17T04:25:38;9.40;;;2.58;;
67749;SDS011;54550;48.838;8.828;2022-09-17T04:28:04;13.48;;;2.38;;
67749;SDS011;54550;48.838;8.828;2022-09-17T04:30:30;10.48;;;3.00;;
67749;SDS011;54550;48.838;8.828;2022-09-17T04:32:56;7.20;;;2.63;;
67749;SDS011;54550;48.838;8.828;2022-09-17T04:35:22;4.20;;;2.00;;
67749;SDS011;54550;48.838;8.828;2022-09-17T04:37:52;5.35;;;2.40;;
67749;SDS011;54550;48.838;8.828;2022-09-17T04:40:18;5.30;;;2.45;;
67749;SDS011;54550;48.838;8.828;2022-09-17T04:42:44;18.42;;;2.38;;
67749;SDS011;54550;48.838;8.828;2022-09-17T04:45:10;7.63;;;3.53;;
67749;SDS011;54550;48.838;8.828;2022-09-17T04:47:39;9.87;;;2.77;;
67749;SDS011;54550;48.838;8.828;2022-09-17T04:50:05;3.65;;;2.30;;
67749;SDS011;54550;48.838;8.828;2022-09-17T04:52:31;10.68;;;3.40;;
67749;SDS011;54550;48.838;8.828;2022-09-17T04:54:57;14.25;;;2.05;;
67749;SDS011;54550;48.838;8.828;2022-09-17T04:57:23;12.90;;;2.17;;
67749;SDS011;54550;48.838;8.828;2022-09-17T04:59:50;6.70;;;2.45;;
67749;SDS011;54550;48.838;8.828;2022-09-17T05:02:16;6.78;;;2.40;;
67749;SDS011;54550;48.838;8.828;2022-09-17T05:04:42;6.40;;;2.60;;
67749;SDS011;54550;48.838;8.828;2022-09-17T05:09:39;17.58;;;5.82;;
67749;SDS011;54550;48.838;8.828;2022-09-17T05:12:05;8.20;;;2.87;;
67749;SDS011;54550;48.838;8.828;2022-09-17T05:14:31;6.88;;;3.08;;
67749;SDS011;54550;48.838;8.828;2022-09-17T05:16:57;3.53;;;2.30;;
67749;SDS011;54550;48.838;8.828;2022-09-17T05:19:23;12.10;;;3.10;;
67749;SDS011;54550;48.838;8.828;2022-09-17T05:21:49;7.70;;;3.47;;
67749;SDS011;54550;48.838;8.828;2022-09-17T05:24:15;10.80;;;3.80;;
67749;SDS011;54550;48.838;8.828;2022-09-17T05:26:41;7.77;;;2.20;;
67749;SDS011;54550;48.838;8.828;2022-09-17T05:29:07;9.87;;;3.27;;
67749;SDS011;54550;48.838;8.828;2022-09-17T05:31:33;5.50;;;2.38;;
67749;SDS011;54550;48.838;8.828;2022-09-17T05:33:59;10.90;;;2.83;;
67749;SDS011;54550;48.838;8.828;2022-09-17T05:36:25;12.73;;;2.53;;
67749;SDS011;54550;48.838;8.828;2022-09-17T05:38:51;12.90;;;2.57;;
67749;SDS011;54550;48.838;8.828;2022-09-17T05:41:17;8.73;;;2.10;;
67749;SDS011;54550;48.838;8.828;2022-09-17T05:43:43;3.05;;;1.65;;
67749;SDS011;54550;48.838;8.828;2022-09-17T05:46:09;4.57;;;2.20;;
67749;SDS011;54550;48.838;8.828;2022-09-17T05:48:36;13.98;;;3.15;;
67749;SDS011;54550;48.838;8.828;2022-09-17T05:51:02;5.67;;;1.93;;
67749;SDS011;54550;48.838;8.828;2022-09-17T05:53:28;5.83;;;1.90;;
67749;SDS011;54550;48.838;8.828;2022-09-17T05:55:57;7.30;;;3.70;;
67749;SDS011;54550;48.838;8.828;2022-09-17T05:58:23;8.73;;;1.83;;
67749;SDS011;54550;48.838;8.828;2022-09-17T06:00:49;3.45;;;2.00;;
67749;SDS011;54550;48.838;8.828;2022-09-17T06:03:16;8.43;;;2.10;;
67749;SDS011;54550;48.838;8.828;2022-09-17T06:05:43;6.38;;;1.77;;
67749;SDS011;54550;48.838;8.828;2022-09-17T06:08:09;3.42;;;1.92;;
67749;SDS011;54550;48.838;8.828;2022-09-17T06:10:35;7.53;;;1.90;;
67749;SDS011;54550;48.838;8.828;2022-09-17T06:13:02;5.55;;;2.00;;
67749;SDS011;54550;48.838;8.828;2022-09-17T06:15:28;9.70;;;2.05;;
67749;SDS011;54550;48.838;8.828;2022-09-17T06:17:55;8.82;;;2.60;;
67749;SDS011;54550;48.838;8.828;2022-09-17T06:20:21;12.13;;;1.90;;
67749;SDS011;54550;48.838;8.828;2022-09-17T06:22:47;3.05;;;1.73;;
67749;SDS011;54550;48.838;8.828;2022-09-17T06:25:13;18.88;;;2.33;;
67749;SDS011;54550;48.838;8.828;2022-09-17T06:27:39;12.13;;;2.05;;
67749;SDS011;54550;48.838;8.828;2022-09-17T06:30:05;4.50;;;1.75;;
67749;SDS011;54550;48.838;8.828;2022-09-17T06:32:31;13.52;;;2.30;;
67749;SDS011;54550;48.838;8.828;2022-09-17T06:34:57;2.35;;;1.58;;
67749;SDS011;54550;48.838;8.828;2022-09-17T06:37:27;8.85;;;1.80;;
67749;SDS011;54550;48.838;8.828;2022-09-17T06:39:53;7.53;;;2.35;;
67749;SDS011;54550;48.838;8.828;2022-09-17T06:42:19;4.70;;;2.00;;
67749;SDS011;54550;48.838;8.828;2022-09-17T06:44:45;6.47;;;2.40;;
67749;SDS011;54550;48.838;8.828;2022-09-17T06:47:12;6.90;;;2.33;;
67749;SDS011;54550;48.838;8.828;2022-09-17T06:49:38;6.90;;;2.35;;
67749;SDS011;54550;48.838;8.828;2022-09-17T06:52:04;3.77;;;2.10;;
67749;SDS011;54550;48.838;8.828;2022-09-17T06:54:30;6.70;;;1.93;;
67749;SDS011;54550;48.838;8.828;2022-09-17T06:56:56;5.63;;;2.10;;
67749;SDS011;54550;48.838;8.828;2022-09-17T06:59:22;12.65;;;2.78;;
67749;SDS011;54550;48.838;8.828;2022-09-17T07:01:49;12.20;;;3.40;;
67749;SDS011;54550;48.838;8.828;2022-09-17T07:04:15;6.50;;;2.47;;
67749;SDS011;54550;48.838;8.828;2022-09-17T07:06:44;7.50;;;2.70;;
67749;SDS011;54550;48.838;8.828;2022-09-17T07:09:10;9.57;;;2.88;;
67749;SDS011;54550;48.838;8.828;2022-09-17T07:11:37;5.13;;;2.05;;
67749;SDS011;54550;48.838;8.828;2022-09-17T07:14:03;11.13;;;2.40;;
67749;SDS011;54550;48.838;8.828;2022-09-17T07:16:29;3.92;;;1.63;;
67749;SDS011;54550;48.838;8.828;2022-09-17T07:18:59;7.13;;;2.38;;
67749;SDS011;54550;48.838;8.828;2022-09-17T07:21:26;5.70;;;2.30;;
67749;SDS011;54550;48.838;8.828;2022-09-17T07:23:51;6.23;;;2.97;;
67749;SDS011;54550;48.838;8.828;2022-09-17T07:26:17;3.30;;;2.50;;
67749;SDS011;54550;48.838;8.828;2022-09-17T07:28:45;2.95;;;2.72;;
67749;SDS011;54550;48.838;8.828;2022-09-17T07:31:11;8.37;;;3.53;;
67749;SDS011;54550;48.838;8.828;2022-09-17T07:33:38;11.07;;;4.45;;
67749;SDS011;54550;48.838;8.828;2022-09-17T07:36:05;7.55;;;4.10;;
67749;SDS011;54550;48.838;8.828;2022-09-17T07:38:32;17.35;;;7.32;;
67749;SDS011;54550;48.838;8.828;2022-09-17T07:41:00;19.73;;;7.13;;
67749;SDS011;54550;48.838;8.828;2022-09-17T07:43:27;22.88;;;5.95;;
67749;SDS011;54550;48.838;8.828;2022-09-17T07:45:53;6.60;;;4.25;;
67749;SDS011;54550;48.838;8.828;2022-09-17T07:48:20;4.78;;;2.83;;
67749;SDS011;54550;48.838;8.828;2022-09-17T07:50:46;4.30;;;2.90;;
67749;SDS011;54550;48.838;8.828;2022-09-17T07:53:12;10.27;;;3.53;;
67749;SDS011;54550;48.838;8.828;2022-09-17T07:55:38;10.35;;;4.00;;
67749;SDS011;54550;48.838;8.828;2022-09-17T07:58:04;9.60;;;4.43;;
67749;SDS011;54550;48.838;8.828;2022-09-17T08:00:30;14.90;;;4.72;;
67749;SDS011;54550;48.838;8.828;2022-09-17T08:02:56;9.33;;;3.33;;
67749;SDS011;54550;48.838;8.828;2022-09-17T08:05:23;12.98;;;3.13;;
67749;SDS011;54550;48.838;8.828;2022-09-17T08:07:52;8.00;;;2.60;;
67749;SDS011;54550;48.838;8.828;2022-09-17T08:10:19;8.57;;;2.85;;
67749;SDS011;54550;48.838;8.828;2022-09-17T08:12:47;13.90;;;2.67;;
67749;SDS011;54550;48.838;8.828;2022-09-17T08:15:14;5.18;;;2.97;;
67749;SDS011;54550;48.838;8.828;2022-09-17T08:17:43;19.55;;;2.75;;
67749;SDS011;54550;48.838;8.828;2022-09-17T08:20:09;14.15;;;2.58;;
67749;SDS011;54550;48.838;8.828;2022-09-17T08:22:35;7.10;;;2.38;;
67749;SDS011;54550;48.838;8.828;2022-09-17T08:25:02;11.07;;;2.10;;
67749;SDS011;54550;48.838;8.828;2022-09-17T08:27:28;6.55;;;1.85;;
67749;SDS011;54550;48.838;8.828;2022-09-17T08:29:55;6.07;;;2.10;;
67749;SDS011;54550;48.838;8.828;2022-09-17T08:32:21;8.83;;;2.30;;
67749;SDS011;54550;48.838;8.828;2022-09-17T08:34:47;4.33;;;2.23;;
67749;SDS011;54550;48.838;8.828;2022-09-17T08:37:13;8.77;;;1.80;;
67749;SDS011;54550;48.838;8.828;2022-09-17T08:39:39;10.30;;;1.93;;
67749;SDS011;54550;48.838;8.828;2022-09-17T08:42:09;13.73;;;2.23;;
67749;SDS011;54550;48.838;8.828;2022-09-17T08:44:41;5.63;;;1.60;;
67749;SDS011;54550;48.838;8.828;2022-09-17T08:47:15;9.43;;;1.80;;
67749;SDS011;54550;48.838;8.828;2022-09-17T08:49:52;8.90;;;1.93;;
67749;SDS011;54550;48.838;8.828;2022-09-17T08:52:25;3.60;;;1.53;;
67749;SDS011;54550;48.838;8.828;2022-09-17T08:55:10;9.60;;;2.80;;
67749;SDS011;54550;48.838;8.828;2022-09-17T09:00:19;7.40;;;1.80;;
67749;SDS011;54550;48.838;8.828;2022-09-17T09:03:01;10.07;;;2.10;;
67749;SDS011;54550;48.838;8.828;2022-09-17T09:05:41;19.53;;;2.70;;
67749;SDS011;54550;48.838;8.828;2022-09-17T09:10:43;13.33;;;2.50;;
67749;SDS011;54550;48.838;8.828;2022-09-17T09:13:09;5.00;;;1.93;;
67749;SDS011;54550;48.838;8.828;2022-09-17T09:15:39;8.23;;;2.20;;
67749;SDS011;54550;48.838;8.828;2022-09-17T09:18:12;5.70;;;2.27;;
67749;SDS011;54550;48.838;8.828;2022-09-17T09:23:16;13.90;;;2.33;;
67749;SDS011;54550;48.838;8.828;2022-09-17T09:25:51;3.77;;;2.70;;
67749;SDS011;54550;48.838;8.828;2022-09-17T09:28:23;8.23;;;2.70;;
67749;SDS011;54550;48.838;8.828;2022-09-17T09:33:30;16.63;;;1.93;;
67749;SDS011;54550;48.838;8.828;2022-09-17T09:35:57;5.40;;;1.93;;
67749;SDS011;54550;48.838;8.828;2022-09-17T09:38:31;4.20;;;1.80;;
67749;SDS011;54550;48.838;8.828;2022-09-17T09:41:01;7.10;;;1.60;;
67749;SDS011;54550;48.838;8.828;2022-09-17T09:44:29;8.63;;;1.53;;
67749;SDS011;54550;48.838;8.828;2022-09-17T09:46:33;14.67;;;2.00;;
67749;SDS011;54550;48.838;8.828;2022-09-17T09:54:07;5.13;;;1.20;;
67749;SDS011;54550;48.838;8.828;2022-09-17T09:56:44;4.63;;;0.83;;
67749;SDS011;54550;48.838;8.828;2022-09-17T09:59:12;5.50;;;1.20;;
67749;SDS011;54550;48.838;8.828;2022-09-17T10:01:41;4.30;;;1.20;;
67749;SDS011;54550;48.838;8.828;2022-09-17T10:06:44;9.37;;;1.40;;
67749;SDS011;54550;48.838;8.828;2022-09-17T10:09:12;6.17;;;1.60;;
67749;SDS011;54550;48.838;8.828;2022-09-17T10:11:38;6.63;;;1.37;;
67749;SDS011;54550;48.838;8.828;2022-09-17T10:14:24;8.17;;;1.40;;
67749;SDS011;54550;48.838;8.828;2022-09-17T10:19:36;9.20;;;1.73;;
67749;SDS011;54550;48.838;8.828;2022-09-17T10:24:46;5.53;;;1.60;;
67749;SDS011;54550;48.838;8.828;2022-09-17T10:27:13;7.27;;;2.00;;
67749;SDS011;54550;48.838;8.828;2022-09-17T10:29:41;7.97;;;1.97;;
67749;SDS011;54550;48.838;8.828;2022-09-17T10:32:12;8.70;;;1.53;;
67749;SDS011;54550;48.838;8.828;2022-09-17T10:34:39;6.17;;;1.60;;
67749;SDS011;54550;48.838;8.828;2022-09-17T10:37:10;5.10;;;1.57;;
67749;SDS011;54550;48.838;8.828;2022-09-17T10:39:52;7.70;;;1.37;;
67749;SDS011;54550;48.838;8.828;2022-09-17T10:42:20;9.07;;;1.87;;
67749;SDS011;54550;48.838;8.828;2022-09-17T10:44:53;9.50;;;1.43;;
67749;SDS011;54550;48.838;8.828;2022-09-17T10:47:29;5.10;;;1.40;;
67749;SDS011;54550;48.838;8.828;2022-09-17T10:49:56;9.73;;;1.70;;
67749;SDS011;54550;48.838;8.828;2022-09-17T10:52:26;2.80;;;1.20;;
67749;SDS011;54550;48.838;8.828;2022-09-17T10:57:30;7.13;;;0.97;;
67749;SDS011;54550;48.838;8.828;2022-09-17T11:02:34;3.60;;;1.37;;
67749;SDS011;54550;48.838;8.828;2022-09-17T11:05:24;2.93;;;1.00;;
67749;SDS011;54550;48.838;8.828;2022-09-17T11:10:29;8.93;;;1.63;;
67749;SDS011;54550;48.838;8.828;2022-09-17T11:18:31;5.50;;;1.60;;
67749;SDS011;54550;48.838;8.828;2022-09-17T11:21:04;7.63;;;1.43;;
67749;SDS011;54550;48.838;8.828;2022-09-17T11:26:31;3.13;;;1.40;;
67749;SDS011;54550;48.838;8.828;2022-09-17T11:31:57;4.03;;;0.93;;
67749;SDS011;54550;48.838;8.828;2022-09-17T11:34:28;6.93;;;1.30;;
67749;SDS011;54550;48.838;8.828;2022-09-17T11:39:33;6.87;;;1.73;;
67749;SDS011;54550;48.838;8.828;2022-09-17T11:42:02;3.63;;;1.00;;
67749;SDS011;54550;48.838;8.828;2022-09-17T11:44:31;8.33;;;1.43;;
67749;SDS011;54550;48.838;8.828;2022-09-17T11:47:18;3.47;;;0.90;;
67749;SDS011;54550;48.838;8.828;2022-09-17T11:49:50;14.80;;;2.10;;
67749;SDS011;54550;48.838;8.828;2022-09-17T11:52:21;2.07;;;1.30;;
67749;SDS011;54550;48.838;8.828;2022-09-17T11:54:51;4.13;;;1.23;;
67749;SDS011;54550;48.838;8.828;2022-09-17T11:57:19;3.90;;;1.13;;
67749;SDS011;54550;48.838;8.828;2022-09-17T11:59:48;3.30;;;1.27;;
67749;SDS011;54550;48.838;8.828;2022-09-17T12:04:51;9.30;;;1.23;;
67749;SDS011;54550;48.838;8.828;2022-09-17T12:12:39;8.43;;;1.17;;
67749;SDS011;54550;48.838;8.828;2022-09-17T12:15:14;6.03;;;1.33;;
67749;SDS011;54550;48.838;8.828;2022-09-17T12:17:47;6.20;;;1.80;;
67749;SDS011;54550;48.838;8.828;2022-09-17T12:20:26;3.90;;;1.07;;
67749;SDS011;54550;48.838;8.828;2022-09-17T12:22:52;6.63;;;1.67;;
67749;SDS011;54550;48.838;8.828;2022-09-17T12:25:18;6.77;;;1.40;;
67749;SDS011;54550;48.838;8.828;2022-09-17T12:27:50;20.52;;;2.20;;
67749;SDS011;54550;48.838;8.828;2022-09-17T12:30:19;5.63;;;2.25;;
67749;SDS011;54550;48.838;8.828;2022-09-17T12:35:27;7.25;;;2.50;;
67749;SDS011;54550;48.838;8.828;2022-09-17T12:38:07;7.35;;;1.80;;
67749;SDS011;54550;48.838;8.828;2022-09-17T12:46:08;9.07;;;2.30;;
67749;SDS011;54550;48.838;8.828;2022-09-17T12:48:44;3.97;;;1.70;;
67749;SDS011;54550;48.838;8.828;2022-09-17T12:51:20;4.60;;;2.22;;
67749;SDS011;54550;48.838;8.828;2022-09-17T12:59:03;6.60;;;2.93;;
67749;SDS011;54550;48.838;8.828;2022-09-17T13:01:50;11.13;;;3.83;;
67749;SDS011;54550;48.838;8.828;2022-09-17T13:15:38;2.42;;;1.88;;
67749;SDS011;54550;48.838;8.828;2022-09-17T13:20:40;7.43;;;2.73;;
67749;SDS011;54550;48.838;8.828;2022-09-17T13:23:08;4.00;;;1.57;;
67749;SDS011;54550;48.838;8.828;2022-09-17T13:25:47;1.47;;;1.30;;
67749;SDS011;54550;48.838;8.828;2022-09-17T13:28:14;5.47;;;1.40;;
67749;SDS011;54550;48.838;8.828;2022-09-17T13:30:53;1.40;;;0.77;;
67749;SDS011;54550;48.838;8.828;2022-09-17T13:36:04;3.47;;;1.30;;
67749;SDS011;54550;48.838;8.828;2022-09-17T13:38:50;4.57;;;1.27;;
67749;SDS011;54550;48.838;8.828;2022-09-17T13:41:17;7.20;;;1.40;;
67749;SDS011;54550;48.838;8.828;2022-09-17T13:46:20;2.60;;;1.10;;
67749;SDS011;54550;48.838;8.828;2022-09-17T13:48:47;2.80;;;0.97;;
67749;SDS011;54550;48.838;8.828;2022-09-17T13:53:56;8.37;;;1.73;;
67749;SDS011;54550;48.838;8.828;2022-09-17T13:56:28;17.03;;;1.80;;
67749;SDS011;54550;48.838;8.828;2022-09-17T13:59:04;8.87;;;1.40;;
67749;SDS011;54550;48.838;8.828;2022-09-17T14:06:59;6.27;;;1.67;;
67749;SDS011;54550;48.838;8.828;2022-09-17T14:09:28;6.33;;;1.83;;
67749;SDS011;54550;48.838;8.828;2022-09-17T14:11:57;3.80;;;1.40;;
67749;SDS011;54550;48.838;8.828;2022-09-17T14:16:52;22.80;;;1.53;;
67749;SDS011;54550;48.838;8.828;2022-09-17T14:19:20;3.53;;;1.40;;
67749;SDS011;54550;48.838;8.828;2022-09-17T14:24:21;6.73;;;2.07;;
67749;SDS011;54550;48.838;8.828;2022-09-17T14:26:52;2.00;;;1.27;;
67749;SDS011;54550;48.838;8.828;2022-09-17T14:32:00;5.20;;;1.70;;
67749;SDS011;54550;48.838;8.828;2022-09-17T14:34:26;5.40;;;1.30;;
67749;SDS011;54550;48.838;8.828;2022-09-17T14:36:53;5.90;;;1.33;;
67749;SDS011;54550;48.838;8.828;2022-09-17T14:39:21;3.90;;;1.13;;
67749;SDS011;54550;48.838;8.828;2022-09-17T14:41:47;8.67;;;2.03;;
67749;SDS011;54550;48.838;8.828;2022-09-17T14:44:14;6.33;;;1.63;;
67749;SDS011;54550;48.838;8.828;2022-09-17T14:46:46;4.33;;;1.43;;
67749;SDS011;54550;48.838;8.828;2022-09-17T14:51:43;12.80;;;1.77;;
67749;SDS011;54550;48.838;8.828;2022-09-17T14:54:28;5.50;;;1.20;;
67749;SDS011;54550;48.838;8.828;2022-09-17T14:59:37;6.20;;;1.40;;
67749;SDS011;54550;48.838;8.828;2022-09-17T15:04:50;5.33;;;1.60;;
67749;SDS011;54550;48.838;8.828;2022-09-17T15:07:16;6.50;;;1.30;;
67749;SDS011;54550;48.838;8.828;2022-09-17T15:09:45;4.30;;;1.20;;
67749;SDS011;54550;48.838;8.828;2022-09-17T15:12:11;5.70;;;1.63;;
67749;SDS011;54550;48.838;8.828;2022-09-17T15:14:38;4.40;;;1.47;;
67749;SDS011;54550;48.838;8.828;2022-09-17T15:17:04;3.90;;;1.50;;
67749;SDS011;54550;48.838;8.828;2022-09-17T15:19:33;5.60;;;1.90;;
67749;SDS011;54550;48.838;8.828;2022-09-17T15:22:05;2.23;;;1.30;;
67749;SDS011;54550;48.838;8.828;2022-09-17T15:27:04;5.50;;;1.23;;
67749;SDS011;54550;48.838;8.828;2022-09-17T15:29:31;8.73;;;1.17;;
67749;SDS011;54550;48.838;8.828;2022-09-17T15:32:01;4.27;;;1.40;;
67749;SDS011;54550;48.838;8.828;2022-09-17T15:34:27;6.30;;;1.40;;
67749;SDS011;54550;48.838;8.828;2022-09-17T15:39:52;4.50;;;0.83;;
67749;SDS011;54550;48.838;8.828;2022-09-17T15:42:21;12.03;;;1.50;;
67749;SDS011;54550;48.838;8.828;2022-09-17T15:44:48;10.93;;;1.40;;
67749;SDS011;54550;48.838;8.828;2022-09-17T15:50:11;6.73;;;1.53;;
67749;SDS011;54550;48.838;8.828;2022-09-17T15:52:37;6.77;;;2.30;;
67749;SDS011;54550;48.838;8.828;2022-09-17T15:55:03;4.37;;;1.83;;
67749;SDS011;54550;48.838;8.828;2022-09-17T15:57:30;5.57;;;1.30;;
67749;SDS011;54550;48.838;8.828;2022-09-17T16:00:12;5.73;;;1.60;;
67749;SDS011;54550;48.838;8.828;2022-09-17T16:02:39;7.70;;;1.50;;
67749;SDS011;54550;48.838;8.828;2022-09-17T16:07:34;15.07;;;2.33;;
67749;SDS011;54550;48.838;8.828;2022-09-17T16:10:00;10.40;;;1.40;;
67749;SDS011;54550;48.838;8.828;2022-09-17T16:12:26;9.47;;;1.53;;
67749;SDS011;54550;48.838;8.828;2022-09-17T16:14:56;4.87;;;1.40;;
67749;SDS011;54550;48.838;8.828;2022-09-17T16:19:48;9.60;;;2.13;;
67749;SDS011;54550;48.838;8.828;2022-09-17T16:22:15;1.87;;;0.80;;
67749;SDS011;54550;48.838;8.828;2022-09-17T16:24:41;13.13;;;1.40;;
67749;SDS011;54550;48.838;8.828;2022-09-17T16:27:09;4.43;;;1.60;;
67749;SDS011;54550;48.838;8.828;2022-09-17T16:29:38;6.10;;;1.90;;
67749;SDS011;54550;48.838;8.828;2022-09-17T16:32:04;3.90;;;1.30;;
67749;SDS011;54550;48.838;8.828;2022-09-17T16:34:31;3.57;;;1.87;;
67749;SDS011;54550;48.838;8.828;2022-09-17T16:36:57;2.40;;;1.20;;
67749;SDS011;54550;48.838;8.828;2022-09-17T16:39:23;9.07;;;1.40;;
67749;SDS011;54550;48.838;8.828;2022-09-17T16:41:49;2.63;;;1.17;;
67749;SDS011;54550;48.838;8.828;2022-09-17T16:44:15;3.60;;;1.60;;
67749;SDS011;54550;48.838;8.828;2022-09-17T16:46:41;6.40;;;1.70;;
67749;SDS011;54550;48.838;8.828;2022-09-17T16:49:07;9.40;;;1.87;;
67749;SDS011;54550;48.838;8.828;2022-09-17T16:51:33;7.30;;;1.80;;
67749;SDS011;54550;48.838;8.828;2022-09-17T16:53:59;6.40;;;1.90;;
67749;SDS011;54550;48.838;8.828;2022-09-17T16:56:25;13.65;;;1.63;;
67749;SDS011;54550;48.838;8.828;2022-09-17T16:58:54;11.10;;;1.77;;
67749;SDS011;54550;48.838;8.828;2022-09-17T17:01:20;11.90;;;2.33;;
67749;SDS011;54550;48.838;8.828;2022-09-17T17:03:49;5.38;;;1.55;;
67749;SDS011;54550;48.838;8.828;2022-09-17T17:06:15;5.75;;;1.95;;
67749;SDS011;54550;48.838;8.828;2022-09-17T17:08:41;7.32;;;1.65;;
67749;SDS011;54550;48.838;8.828;2022-09-17T17:11:07;8.00;;;1.77;;
67749;SDS011;54550;48.838;8.828;2022-09-17T17:13:33;7.77;;;1.80;;
67749;SDS011;54550;48.838;8.828;2022-09-17T17:16:04;14.20;;;4.10;;
67749;SDS011;54550;48.838;8.828;2022-09-17T17:18:30;6.25;;;2.58;;
67749;SDS011;54550;48.838;8.828;2022-09-17T17:21:02;6.93;;;1.70;;
67749;SDS011;54550;48.838;8.828;2022-09-17T17:23:28;6.55;;;1.60;;
67749;SDS011;54550;48.838;8.828;2022-09-17T17:25:54;7.53;;;1.60;;
67749;SDS011;54550;48.838;8.828;2022-09-17T17:28:20;8.67;;;1.83;;
67749;SDS011;54550;48.838;8.828;2022-09-17T17:30:46;27.63;;;2.10;;
67749;SDS011;54550;48.838;8.828;2022-09-17T17:33:13;2.70;;;1.48;;
67749;SDS011;54550;48.838;8.828;2022-09-17T17:35:39;7.13;;;1.43;;
67749;SDS011;54550;48.838;8.828;2022-09-17T17:38:05;3.33;;;1.75;;
67749;SDS011;54550;48.838;8.828;2022-09-17T17:40:31;12.67;;;1.37;;
67749;SDS011;54550;48.838;8.828;2022-09-17T17:42:57;3.67;;;1.50;;
67749;SDS011;54550;48.838;8.828;2022-09-17T17:45:23;5.73;;;2.00;;
67749;SDS011;54550;48.838;8.828;2022-09-17T17:47:49;8.97;;;2.40;;
67749;SDS011;54550;48.838;8.828;2022-09-17T17:50:16;8.30;;;1.55;;
67749;SDS011;54550;48.838;8.828;2022-09-17T17:52:42;7.60;;;2.83;;
67749;SDS011;54550;48.838;8.828;2022-09-17T17:55:11;25.92;;;12.50;;
67749;SDS011;54550;48.838;8.828;2022-09-17T17:57:37;20.88;;;11.02;;
67749;SDS011;54550;48.838;8.828;2022-09-17T18:00:04;2.58;;;2.10;;